LVBWN SAAJ-SADF
Flight info
| Callsign | LVBWN |
|---|---|
| Flight time | N/A |
| Altitude | 11000 |
| Route | DCT NIN/N0250F050 IFR W12 SNT W24 FDO |
| Aircraft | TBM8/L-SGR/C |
Departure
| Time | N/A |
|---|---|
| Airport | SAAJ |
Arrival
| Time | 2026-04-12 02:14 |
|---|---|
| Airport | San Fernando Airport (SADF) |
| Time | Latitude | Longitude | Altitude | Speed | Heading |
|---|---|---|---|---|---|
| 2026-04-12 01:26 | -34.55193 | -60.93107 | 253 ft | 0 kts | 314° |
| 2026-04-12 01:27 | -34.55181 | -60.93116 | 253 ft | 7 kts | 358° |
| 2026-04-12 01:27 | -34.55141 | -60.93076 | 253 ft | 3 kts | 48° |
| 2026-04-12 01:28 | -34.55139 | -60.93073 | 253 ft | 0 kts | 48° |
| 2026-04-12 01:31 | -34.55130 | -60.93062 | 253 ft | 11 kts | 46° |
| 2026-04-12 01:31 | -34.55151 | -60.92990 | 255 ft | 15 kts | 176° |
| 2026-04-12 01:31 | -34.55254 | -60.92979 | 255 ft | 7 kts | 90° |
| 2026-04-12 01:31 | -34.55236 | -60.92979 | 255 ft | 7 kts | 337° |
| 2026-04-12 01:32 | -34.55228 | -60.92981 | 255 ft | 0 kts | 354° |
| 2026-04-12 01:32 | -34.55147 | -60.92991 | 255 ft | 35 kts | 353° |
| 2026-04-12 01:32 | -34.54719 | -60.93040 | 253 ft | 87 kts | 354° |
| 2026-04-12 01:32 | -34.54277 | -60.93114 | 330 ft | 104 kts | 348° |
| 2026-04-12 01:33 | -34.53583 | -60.93350 | 755 ft | 98 kts | 345° |
| 2026-04-12 01:33 | -34.52951 | -60.93626 | 1167 ft | 102 kts | 345° |
| 2026-04-12 01:33 | -34.52250 | -60.93534 | 1461 ft | 108 kts | 42° |
| 2026-04-12 01:33 | -34.52069 | -60.92716 | 2025 ft | 105 kts | 90° |
| 2026-04-12 01:34 | -34.52230 | -60.91831 | 2395 ft | 110 kts | 97° |
| 2026-04-12 01:34 | -34.52602 | -60.90982 | 2743 ft | 122 kts | 118° |
| 2026-04-12 01:34 | -34.53002 | -60.90021 | 3012 ft | 127 kts | 97° |
| 2026-04-12 01:34 | -34.53104 | -60.89000 | 3448 ft | 117 kts | 76° |
| 2026-04-12 01:35 | -34.52939 | -60.88081 | 3865 ft | 111 kts | 72° |
| 2026-04-12 01:35 | -34.52766 | -60.87095 | 3994 ft | 134 kts | 72° |
| 2026-04-12 01:35 | -34.52546 | -60.85876 | 4007 ft | 160 kts | 73° |
| 2026-04-12 01:35 | -34.52277 | -60.84491 | 4008 ft | 177 kts | 72° |
| 2026-04-12 01:36 | -34.51972 | -60.83019 | 4000 ft | 182 kts | 72° |
| 2026-04-12 01:36 | -34.51654 | -60.81528 | 4004 ft | 184 kts | 72° |
| 2026-04-12 01:36 | -34.51329 | -60.80006 | 4009 ft | 188 kts | 72° |
| 2026-04-12 01:36 | -34.51007 | -60.78459 | 4003 ft | 191 kts | 73° |
| 2026-04-12 01:37 | -34.50682 | -60.76893 | 4008 ft | 192 kts | 73° |
| 2026-04-12 01:37 | -34.50354 | -60.75317 | 4007 ft | 193 kts | 72° |
| 2026-04-12 01:37 | -34.50024 | -60.73735 | 4006 ft | 194 kts | 72° |
| 2026-04-12 01:37 | -34.49694 | -60.72151 | 4006 ft | 194 kts | 73° |
| 2026-04-12 01:38 | -34.49363 | -60.70565 | 4008 ft | 194 kts | 72° |
| 2026-04-12 01:38 | -34.49036 | -60.69006 | 4029 ft | 194 kts | 73° |
| 2026-04-12 01:38 | -34.48700 | -60.67399 | 4032 ft | 194 kts | 73° |
| 2026-04-12 01:38 | -34.48373 | -60.65832 | 4031 ft | 195 kts | 73° |
| 2026-04-12 01:39 | -34.48039 | -60.64239 | 4029 ft | 195 kts | 73° |
| 2026-04-12 01:39 | -34.47712 | -60.62659 | 4029 ft | 191 kts | 73° |
| 2026-04-12 01:39 | -34.47386 | -60.61112 | 4027 ft | 188 kts | 72° |
| 2026-04-12 01:39 | -34.47065 | -60.59587 | 4106 ft | 181 kts | 72° |
| 2026-04-12 01:40 | -34.46769 | -60.58196 | 4560 ft | 164 kts | 71° |
| 2026-04-12 01:40 | -34.46473 | -60.56853 | 4870 ft | 166 kts | 72° |
| 2026-04-12 01:40 | -34.46183 | -60.55484 | 5238 ft | 169 kts | 72° |
| 2026-04-12 01:40 | -34.45892 | -60.54093 | 5670 ft | 171 kts | 72° |
| 2026-04-12 01:41 | -34.45602 | -60.52696 | 6066 ft | 175 kts | 73° |
| 2026-04-12 01:41 | -34.45297 | -60.51237 | 6475 ft | 178 kts | 73° |
| 2026-04-12 01:41 | -34.44993 | -60.49788 | 6862 ft | 180 kts | 73° |
| 2026-04-12 01:41 | -34.44683 | -60.48312 | 7243 ft | 182 kts | 73° |
| 2026-04-12 01:42 | -34.44367 | -60.46828 | 7633 ft | 183 kts | 73° |
| 2026-04-12 01:42 | -34.44050 | -60.45322 | 8018 ft | 185 kts | 73° |
| 2026-04-12 01:42 | -34.43731 | -60.43803 | 8410 ft | 187 kts | 73° |
| 2026-04-12 01:42 | -34.43407 | -60.42271 | 8792 ft | 189 kts | 73° |
| 2026-04-12 01:43 | -34.43080 | -60.40724 | 9191 ft | 190 kts | 73° |
| 2026-04-12 01:43 | -34.42750 | -60.39166 | 9577 ft | 192 kts | 73° |
| 2026-04-12 01:43 | -34.42417 | -60.37590 | 9956 ft | 194 kts | 73° |
| 2026-04-12 01:43 | -34.42080 | -60.36002 | 10309 ft | 195 kts | 73° |
| 2026-04-12 01:44 | -34.41747 | -60.34404 | 10613 ft | 196 kts | 73° |
| 2026-04-12 01:44 | -34.41416 | -60.32819 | 10829 ft | 198 kts | 73° |
| 2026-04-12 01:44 | -34.41063 | -60.31182 | 11023 ft | 200 kts | 72° |
| 2026-04-12 01:44 | -34.40709 | -60.29518 | 11034 ft | 211 kts | 73° |
| 2026-04-12 01:45 | -34.40332 | -60.27737 | 11039 ft | 219 kts | 73° |
| 2026-04-12 01:45 | -34.39952 | -60.25949 | 11047 ft | 225 kts | 73° |
| 2026-04-12 01:45 | -34.39557 | -60.24101 | 11045 ft | 229 kts | 73° |
| 2026-04-12 01:45 | -34.39156 | -60.22219 | 11046 ft | 231 kts | 73° |
| 2026-04-12 01:46 | -34.38751 | -60.20323 | 11047 ft | 233 kts | 73° |
| 2026-04-12 01:46 | -34.38344 | -60.18416 | 11042 ft | 234 kts | 73° |
| 2026-04-12 01:46 | -34.37935 | -60.16506 | 11043 ft | 235 kts | 73° |
| 2026-04-12 01:46 | -34.37524 | -60.14585 | 11042 ft | 236 kts | 73° |
| 2026-04-12 01:47 | -34.37112 | -60.12660 | 11042 ft | 236 kts | 73° |
| 2026-04-12 01:47 | -34.36700 | -60.10739 | 11042 ft | 236 kts | 73° |
| 2026-04-12 01:47 | -34.36288 | -60.08815 | 11042 ft | 236 kts | 73° |
| 2026-04-12 01:47 | -34.35875 | -60.06891 | 11040 ft | 236 kts | 72° |
| 2026-04-12 01:48 | -34.35458 | -60.04962 | 11043 ft | 236 kts | 73° |
| 2026-04-12 01:48 | -34.35055 | -60.03061 | 11042 ft | 236 kts | 72° |
| 2026-04-12 01:48 | -34.34630 | -60.01136 | 11042 ft | 236 kts | 72° |
| 2026-04-12 01:48 | -34.34217 | -59.99209 | 11042 ft | 236 kts | 72° |
| 2026-04-12 01:49 | -34.33806 | -59.97280 | 11042 ft | 236 kts | 72° |
| 2026-04-12 01:49 | -34.33391 | -59.95352 | 11042 ft | 236 kts | 72° |
| 2026-04-12 01:49 | -34.32975 | -59.93425 | 11039 ft | 236 kts | 72° |
| 2026-04-12 01:49 | -34.32559 | -59.91501 | 11042 ft | 237 kts | 72° |
| 2026-04-12 01:50 | -34.32142 | -59.89575 | 11039 ft | 237 kts | 72° |
| 2026-04-12 01:50 | -34.31725 | -59.87649 | 11040 ft | 237 kts | 72° |
| 2026-04-12 01:50 | -34.31308 | -59.85723 | 11040 ft | 237 kts | 72° |
| 2026-04-12 01:50 | -34.30890 | -59.83797 | 11042 ft | 237 kts | 72° |
| 2026-04-12 01:51 | -34.30059 | -59.79969 | 11043 ft | 237 kts | 72° |
| 2026-04-12 01:51 | -34.29641 | -59.78042 | 11045 ft | 237 kts | 72° |
| 2026-04-12 01:51 | -34.29222 | -59.76115 | 11044 ft | 237 kts | 72° |
| 2026-04-12 01:52 | -34.28802 | -59.74188 | 11045 ft | 237 kts | 72° |
| 2026-04-12 01:52 | -34.28382 | -59.72260 | 11044 ft | 237 kts | 72° |
| 2026-04-12 01:52 | -34.27962 | -59.70335 | 11043 ft | 237 kts | 72° |
| 2026-04-12 01:52 | -34.27541 | -59.68408 | 11043 ft | 237 kts | 71° |
| 2026-04-12 01:53 | -34.27121 | -59.66483 | 11041 ft | 237 kts | 71° |
| 2026-04-12 01:53 | -34.26701 | -59.64561 | 11041 ft | 237 kts | 71° |
| 2026-04-12 01:53 | -34.26279 | -59.62631 | 11045 ft | 237 kts | 71° |
| 2026-04-12 01:53 | -34.25858 | -59.60706 | 11043 ft | 237 kts | 71° |
| 2026-04-12 01:54 | -34.25435 | -59.58779 | 11043 ft | 237 kts | 71° |
| 2026-04-12 01:54 | -34.25017 | -59.56873 | 11044 ft | 237 kts | 71° |
| 2026-04-12 01:54 | -34.24594 | -59.54943 | 11044 ft | 237 kts | 71° |
| 2026-04-12 01:54 | -34.24172 | -59.53022 | 11041 ft | 237 kts | 71° |
| 2026-04-12 01:55 | -34.23747 | -59.51088 | 11040 ft | 237 kts | 71° |
| 2026-04-12 01:55 | -34.23321 | -59.49151 | 11042 ft | 237 kts | 71° |
| 2026-04-12 01:55 | -34.22896 | -59.47223 | 11044 ft | 238 kts | 71° |
| 2026-04-12 01:55 | -34.22473 | -59.45294 | 11042 ft | 238 kts | 72° |
| 2026-04-12 01:56 | -34.22349 | -59.43291 | 11034 ft | 242 kts | 92° |
| 2026-04-12 01:56 | -34.22505 | -59.41261 | 11035 ft | 243 kts | 92° |
| 2026-04-12 01:56 | -34.22648 | -59.39253 | 10988 ft | 245 kts | 92° |
| 2026-04-12 01:56 | -34.22796 | -59.37191 | 10702 ft | 239 kts | 94° |
| 2026-04-12 01:57 | -34.22993 | -59.35294 | 10408 ft | 218 kts | 95° |
| 2026-04-12 01:57 | -34.23315 | -59.33561 | 10114 ft | 208 kts | 115° |
| 2026-04-12 01:57 | -34.24255 | -59.32311 | 9817 ft | 199 kts | 145° |
| 2026-04-12 01:57 | -34.25254 | -59.31176 | 9490 ft | 195 kts | 128° |
| 2026-04-12 01:58 | -34.25922 | -59.29772 | 9173 ft | 190 kts | 107° |
| 2026-04-12 01:58 | -34.26341 | -59.28272 | 8861 ft | 187 kts | 106° |
| 2026-04-12 01:58 | -34.26752 | -59.26788 | 8557 ft | 185 kts | 105° |
| 2026-04-12 01:58 | -34.27148 | -59.25319 | 8252 ft | 182 kts | 105° |
| 2026-04-12 01:59 | -34.27538 | -59.23870 | 7954 ft | 180 kts | 105° |
| 2026-04-12 01:59 | -34.27924 | -59.22438 | 7656 ft | 178 kts | 105° |
| 2026-04-12 01:59 | -34.28302 | -59.21035 | 7366 ft | 176 kts | 104° |
| 2026-04-12 01:59 | -34.28679 | -59.19638 | 7076 ft | 174 kts | 104° |
| 2026-04-12 02:00 | -34.29058 | -59.18254 | 6788 ft | 172 kts | 105° |
| 2026-04-12 02:00 | -34.29629 | -59.16992 | 6495 ft | 178 kts | 134° |
| 2026-04-12 02:00 | -34.30598 | -59.15982 | 6206 ft | 189 kts | 133° |
| 2026-04-12 02:00 | -34.31496 | -59.14784 | 5915 ft | 194 kts | 127° |
| 2026-04-12 02:01 | -34.32358 | -59.13515 | 5771 ft | 202 kts | 125° |
| 2026-04-12 02:01 | -34.33284 | -59.12143 | 5656 ft | 217 kts | 127° |
| 2026-04-12 02:01 | -34.34293 | -59.10721 | 5544 ft | 226 kts | 128° |
| 2026-04-12 02:01 | -34.35324 | -59.09262 | 5419 ft | 230 kts | 127° |
| 2026-04-12 02:02 | -34.36364 | -59.07769 | 5312 ft | 233 kts | 127° |
| 2026-04-12 02:02 | -34.37414 | -59.06258 | 5159 ft | 236 kts | 127° |
| 2026-04-12 02:02 | -34.38480 | -59.04727 | 4966 ft | 239 kts | 127° |
| 2026-04-12 02:02 | -34.39539 | -59.03206 | 4766 ft | 240 kts | 127° |
| 2026-04-12 02:03 | -34.40616 | -59.01658 | 4566 ft | 240 kts | 127° |
| 2026-04-12 02:03 | -34.41593 | -59.00252 | 4377 ft | 240 kts | 127° |
| 2026-04-12 02:03 | -34.42664 | -58.98710 | 4177 ft | 239 kts | 127° |
| 2026-04-12 02:03 | -34.43732 | -58.97172 | 3975 ft | 238 kts | 127° |
| 2026-04-12 02:04 | -34.44796 | -58.95639 | 3781 ft | 237 kts | 127° |
| 2026-04-12 02:04 | -34.45847 | -58.94125 | 3574 ft | 235 kts | 127° |
| 2026-04-12 02:04 | -34.46893 | -58.92635 | 3376 ft | 227 kts | 127° |
| 2026-04-12 02:04 | -34.47894 | -58.91186 | 3171 ft | 222 kts | 126° |
| 2026-04-12 02:05 | -34.48876 | -58.89756 | 2994 ft | 217 kts | 126° |
| 2026-04-12 02:05 | -34.49825 | -58.88386 | 2990 ft | 208 kts | 126° |
| 2026-04-12 02:05 | -34.50741 | -58.87058 | 2973 ft | 203 kts | 126° |
| 2026-04-12 02:05 | -34.51627 | -58.85772 | 2972 ft | 200 kts | 126° |
| 2026-04-12 02:06 | -34.52508 | -58.84482 | 2967 ft | 196 kts | 126° |
| 2026-04-12 02:06 | -34.53364 | -58.83272 | 2961 ft | 183 kts | 126° |
| 2026-04-12 02:06 | -34.54175 | -58.82128 | 2959 ft | 174 kts | 126° |
| 2026-04-12 02:06 | -34.54955 | -58.81031 | 2957 ft | 168 kts | 126° |
| 2026-04-12 02:07 | -34.55704 | -58.79966 | 2955 ft | 163 kts | 121° |
| 2026-04-12 02:07 | -34.55971 | -58.78731 | 2961 ft | 149 kts | 74° |
| 2026-04-12 02:07 | -34.55649 | -58.77557 | 2981 ft | 147 kts | 73° |
| 2026-04-12 02:07 | -34.55608 | -58.76299 | 2981 ft | 151 kts | 87° |
| 2026-04-12 02:08 | -34.55650 | -58.75046 | 2982 ft | 151 kts | 87° |
| 2026-04-12 02:08 | -34.55663 | -58.73777 | 2920 ft | 150 kts | 77° |
| 2026-04-12 02:08 | -34.55346 | -58.72542 | 2303 ft | 162 kts | 72° |
| 2026-04-12 02:08 | -34.55097 | -58.71302 | 2307 ft | 139 kts | 76° |
| 2026-04-12 02:09 | -34.54893 | -58.70234 | 2360 ft | 126 kts | 71° |
| 2026-04-12 02:09 | -34.54414 | -58.69416 | 2360 ft | 119 kts | 37° |
| 2026-04-12 02:09 | -34.53790 | -58.68794 | 2189 ft | 113 kts | 42° |
| 2026-04-12 02:09 | -34.53235 | -58.68068 | 1769 ft | 121 kts | 50° |
| 2026-04-12 02:10 | -34.52658 | -58.67386 | 1568 ft | 113 kts | 37° |
| 2026-04-12 02:10 | -34.52005 | -58.66971 | 1561 ft | 96 kts | 27° |
| 2026-04-12 02:10 | -34.51409 | -58.66597 | 1647 ft | 96 kts | 30° |
| 2026-04-12 02:10 | -34.50822 | -58.66104 | 1669 ft | 107 kts | 41° |
| 2026-04-12 02:11 | -34.50328 | -58.65435 | 1526 ft | 102 kts | 51° |
| 2026-04-12 02:11 | -34.49884 | -58.64751 | 1400 ft | 96 kts | 51° |
| 2026-04-12 02:11 | -34.49510 | -58.64150 | 1197 ft | 86 kts | 54° |
| 2026-04-12 02:11 | -34.49166 | -58.63569 | 978 ft | 83 kts | 53° |
| 2026-04-12 02:12 | -34.48783 | -58.63045 | 753 ft | 83 kts | 43° |
| 2026-04-12 02:12 | -34.48369 | -58.62591 | 687 ft | 83 kts | 46° |
| 2026-04-12 02:12 | -34.47950 | -58.62082 | 600 ft | 87 kts | 45° |
| 2026-04-12 02:12 | -34.47535 | -58.61547 | 484 ft | 88 kts | 45° |
| 2026-04-12 02:13 | -34.47091 | -58.61035 | 374 ft | 88 kts | 43° |
| 2026-04-12 02:13 | -34.46653 | -58.60514 | 256 ft | 89 kts | 45° |
| 2026-04-12 02:13 | -34.46217 | -58.59992 | 131 ft | 87 kts | 45° |
| 2026-04-12 02:13 | -34.45794 | -58.59485 | 27 ft | 82 kts | 43° |
| 2026-04-12 02:14 | -34.45467 | -58.59102 | 25 ft | 44 kts | 44° |
| 2026-04-12 02:14 | -34.45329 | -58.58940 | 22 ft | 20 kts | 44° |